sensor_id;sensor_type;location;lat;lon;timestamp;P1;durP1;ratioP1;P2;durP2;ratioP2
38843;SDS011;24596;48.080;8.362;2022-07-23T00:00:39;19.67;;;13.77;;
38843;SDS011;24596;48.080;8.362;2022-07-23T00:03:04;17.83;;;11.90;;
38843;SDS011;24596;48.080;8.362;2022-07-23T00:05:29;13.55;;;11.05;;
38843;SDS011;24596;48.080;8.362;2022-07-23T00:07:57;14.77;;;11.50;;
38843;SDS011;24596;48.080;8.362;2022-07-23T00:10:22;12.45;;;10.82;;
38843;SDS011;24596;48.080;8.362;2022-07-23T00:12:48;15.30;;;11.60;;
38843;SDS011;24596;48.080;8.362;2022-07-23T00:15:13;16.67;;;12.13;;
38843;SDS011;24596;48.080;8.362;2022-07-23T00:17:38;15.60;;;12.30;;
38843;SDS011;24596;48.080;8.362;2022-07-23T00:20:04;13.93;;;10.77;;
38843;SDS011;24596;48.080;8.362;2022-07-23T00:22:29;14.80;;;12.00;;
38843;SDS011;24596;48.080;8.362;2022-07-23T00:24:55;19.02;;;13.15;;
38843;SDS011;24596;48.080;8.362;2022-07-23T00:27:20;16.98;;;11.82;;
38843;SDS011;24596;48.080;8.362;2022-07-23T00:29:46;16.48;;;11.30;;
38843;SDS011;24596;48.080;8.362;2022-07-23T00:32:13;16.85;;;12.02;;
38843;SDS011;24596;48.080;8.362;2022-07-23T00:34:39;15.23;;;11.38;;
38843;SDS011;24596;48.080;8.362;2022-07-23T00:37:04;15.93;;;11.65;;
38843;SDS011;24596;48.080;8.362;2022-07-23T00:39:29;14.33;;;11.47;;
38843;SDS011;24596;48.080;8.362;2022-07-23T00:41:54;17.43;;;11.33;;
38843;SDS011;24596;48.080;8.362;2022-07-23T00:44:26;17.40;;;11.63;;
38843;SDS011;24596;48.080;8.362;2022-07-23T00:46:55;15.00;;;11.10;;
38843;SDS011;24596;48.080;8.362;2022-07-23T00:49:21;13.60;;;10.15;;
38843;SDS011;24596;48.080;8.362;2022-07-23T00:51:47;13.43;;;10.38;;
38843;SDS011;24596;48.080;8.362;2022-07-23T00:54:13;16.50;;;10.10;;
38843;SDS011;24596;48.080;8.362;2022-07-23T00:56:38;15.73;;;11.30;;
38843;SDS011;24596;48.080;8.362;2022-07-23T00:59:05;16.67;;;12.23;;
38843;SDS011;24596;48.080;8.362;2022-07-23T01:01:30;17.92;;;12.77;;
38843;SDS011;24596;48.080;8.362;2022-07-23T01:03:55;14.80;;;11.17;;
38843;SDS011;24596;48.080;8.362;2022-07-23T01:06:20;14.57;;;12.18;;
38843;SDS011;24596;48.080;8.362;2022-07-23T01:08:46;15.85;;;12.13;;
38843;SDS011;24596;48.080;8.362;2022-07-23T01:11:11;20.90;;;14.15;;
38843;SDS011;24596;48.080;8.362;2022-07-23T01:13:40;14.48;;;11.52;;
38843;SDS011;24596;48.080;8.362;2022-07-23T01:16:06;18.73;;;13.18;;
38843;SDS011;24596;48.080;8.362;2022-07-23T01:18:31;18.17;;;12.98;;
38843;SDS011;24596;48.080;8.362;2022-07-23T01:20:56;14.27;;;12.23;;
38843;SDS011;24596;48.080;8.362;2022-07-23T01:23:21;15.63;;;12.63;;
38843;SDS011;24596;48.080;8.362;2022-07-23T01:25:47;19.27;;;14.80;;
38843;SDS011;24596;48.080;8.362;2022-07-23T01:28:12;19.08;;;12.77;;
38843;SDS011;24596;48.080;8.362;2022-07-23T01:30:37;18.30;;;13.33;;
38843;SDS011;24596;48.080;8.362;2022-07-23T01:33:03;18.17;;;13.17;;
38843;SDS011;24596;48.080;8.362;2022-07-23T01:35:28;17.40;;;13.60;;
38843;SDS011;24596;48.080;8.362;2022-07-23T01:37:53;14.60;;;12.57;;
38843;SDS011;24596;48.080;8.362;2022-07-23T01:40:20;15.98;;;13.25;;
38843;SDS011;24596;48.080;8.362;2022-07-23T01:42:45;15.48;;;11.55;;
38843;SDS011;24596;48.080;8.362;2022-07-23T01:45:10;13.90;;;10.37;;
38843;SDS011;24596;48.080;8.362;2022-07-23T01:47:35;14.23;;;11.80;;
38843;SDS011;24596;48.080;8.362;2022-07-23T01:50:01;15.27;;;11.27;;
38843;SDS011;24596;48.080;8.362;2022-07-23T01:52:26;14.65;;;11.45;;
38843;SDS011;24596;48.080;8.362;2022-07-23T01:54:51;16.35;;;10.45;;
38843;SDS011;24596;48.080;8.362;2022-07-23T01:57:16;15.68;;;11.60;;
38843;SDS011;24596;48.080;8.362;2022-07-23T01:59:42;13.73;;;10.25;;
38843;SDS011;24596;48.080;8.362;2022-07-23T02:02:07;14.45;;;10.05;;
38843;SDS011;24596;48.080;8.362;2022-07-23T02:04:32;13.50;;;9.38;;
38843;SDS011;24596;48.080;8.362;2022-07-23T02:07:01;13.13;;;9.57;;
38843;SDS011;24596;48.080;8.362;2022-07-23T02:09:27;14.65;;;10.98;;
38843;SDS011;24596;48.080;8.362;2022-07-23T02:11:52;12.13;;;9.90;;
38843;SDS011;24596;48.080;8.362;2022-07-23T02:14:17;11.38;;;9.77;;
38843;SDS011;24596;48.080;8.362;2022-07-23T02:16:43;12.48;;;10.38;;
38843;SDS011;24596;48.080;8.362;2022-07-23T02:19:08;14.40;;;9.53;;
38843;SDS011;24596;48.080;8.362;2022-07-23T02:21:33;12.67;;;10.13;;
38843;SDS011;24596;48.080;8.362;2022-07-23T02:23:58;13.67;;;9.57;;
38843;SDS011;24596;48.080;8.362;2022-07-23T02:26:23;14.05;;;10.07;;
38843;SDS011;24596;48.080;8.362;2022-07-23T02:28:49;14.03;;;10.20;;
38843;SDS011;24596;48.080;8.362;2022-07-23T02:31:14;12.95;;;9.18;;
38843;SDS011;24596;48.080;8.362;2022-07-23T02:33:39;12.82;;;8.80;;
38843;SDS011;24596;48.080;8.362;2022-07-23T02:36:04;12.63;;;7.90;;
38843;SDS011;24596;48.080;8.362;2022-07-23T02:38:30;10.75;;;8.07;;
38843;SDS011;24596;48.080;8.362;2022-07-23T02:40:55;10.57;;;7.13;;
38843;SDS011;24596;48.080;8.362;2022-07-23T02:43:20;9.97;;;6.80;;
38843;SDS011;24596;48.080;8.362;2022-07-23T02:45:45;11.52;;;7.65;;
38843;SDS011;24596;48.080;8.362;2022-07-23T02:48:10;10.73;;;7.80;;
38843;SDS011;24596;48.080;8.362;2022-07-23T02:50:37;13.35;;;7.90;;
38843;SDS011;24596;48.080;8.362;2022-07-23T02:53:02;11.85;;;7.72;;
38843;SDS011;24596;48.080;8.362;2022-07-23T02:55:28;13.48;;;7.95;;
38843;SDS011;24596;48.080;8.362;2022-07-23T02:57:53;11.95;;;7.55;;
38843;SDS011;24596;48.080;8.362;2022-07-23T03:00:18;10.10;;;7.45;;
38843;SDS011;24596;48.080;8.362;2022-07-23T03:02:43;12.68;;;7.78;;
38843;SDS011;24596;48.080;8.362;2022-07-23T03:05:09;10.20;;;7.60;;
38843;SDS011;24596;48.080;8.362;2022-07-23T03:07:34;13.95;;;8.70;;
38843;SDS011;24596;48.080;8.362;2022-07-23T03:09:59;11.38;;;8.32;;
38843;SDS011;24596;48.080;8.362;2022-07-23T03:12:25;12.70;;;8.77;;
38843;SDS011;24596;48.080;8.362;2022-07-23T03:14:50;13.02;;;8.95;;
38843;SDS011;24596;48.080;8.362;2022-07-23T03:17:16;12.73;;;8.15;;
38843;SDS011;24596;48.080;8.362;2022-07-23T03:19:41;13.02;;;8.65;;
38843;SDS011;24596;48.080;8.362;2022-07-23T03:22:07;11.40;;;8.25;;
38843;SDS011;24596;48.080;8.362;2022-07-23T03:24:32;11.32;;;7.78;;
38843;SDS011;24596;48.080;8.362;2022-07-23T03:27:16;11.68;;;8.23;;
38843;SDS011;24596;48.080;8.362;2022-07-23T03:29:41;12.43;;;7.73;;
38843;SDS011;24596;48.080;8.362;2022-07-23T03:32:06;11.57;;;7.68;;
38843;SDS011;24596;48.080;8.362;2022-07-23T03:34:32;13.68;;;9.65;;
38843;SDS011;24596;48.080;8.362;2022-07-23T03:36:57;13.93;;;9.00;;
38843;SDS011;24596;48.080;8.362;2022-07-23T03:39:22;9.98;;;7.95;;
38843;SDS011;24596;48.080;8.362;2022-07-23T03:41:47;12.15;;;8.30;;
38843;SDS011;24596;48.080;8.362;2022-07-23T03:44:13;13.00;;;7.70;;
38843;SDS011;24596;48.080;8.362;2022-07-23T03:46:38;11.18;;;7.65;;
38843;SDS011;24596;48.080;8.362;2022-07-23T03:49:03;10.70;;;7.45;;
38843;SDS011;24596;48.080;8.362;2022-07-23T03:51:28;9.90;;;7.07;;
38843;SDS011;24596;48.080;8.362;2022-07-23T03:53:54;11.23;;;7.20;;
38843;SDS011;24596;48.080;8.362;2022-07-23T03:56:20;10.05;;;7.75;;
38843;SDS011;24596;48.080;8.362;2022-07-23T03:58:45;13.88;;;8.18;;
38843;SDS011;24596;48.080;8.362;2022-07-23T04:01:11;9.53;;;7.37;;
38843;SDS011;24596;48.080;8.362;2022-07-23T04:03:36;10.18;;;6.75;;
38843;SDS011;24596;48.080;8.362;2022-07-23T04:06:02;16.85;;;8.25;;
38843;SDS011;24596;48.080;8.362;2022-07-23T04:08:27;11.35;;;7.68;;
38843;SDS011;24596;48.080;8.362;2022-07-23T04:10:52;11.23;;;7.05;;
38843;SDS011;24596;48.080;8.362;2022-07-23T04:13:18;11.05;;;7.05;;
38843;SDS011;24596;48.080;8.362;2022-07-23T04:15:43;11.88;;;6.85;;
38843;SDS011;24596;48.080;8.362;2022-07-23T04:18:08;10.43;;;6.93;;
38843;SDS011;24596;48.080;8.362;2022-07-23T04:20:33;9.90;;;6.95;;
38843;SDS011;24596;48.080;8.362;2022-07-23T04:22:59;10.25;;;7.47;;
38843;SDS011;24596;48.080;8.362;2022-07-23T04:27:51;10.30;;;7.05;;
38843;SDS011;24596;48.080;8.362;2022-07-23T04:30:17;12.00;;;7.45;;
38843;SDS011;24596;48.080;8.362;2022-07-23T04:32:42;11.05;;;7.05;;
38843;SDS011;24596;48.080;8.362;2022-07-23T04:35:07;10.82;;;7.05;;
38843;SDS011;24596;48.080;8.362;2022-07-23T04:37:33;9.60;;;7.03;;
38843;SDS011;24596;48.080;8.362;2022-07-23T04:39:58;11.45;;;7.22;;
38843;SDS011;24596;48.080;8.362;2022-07-23T04:42:23;11.82;;;6.85;;
38843;SDS011;24596;48.080;8.362;2022-07-23T04:44:48;11.10;;;6.87;;
38843;SDS011;24596;48.080;8.362;2022-07-23T04:47:13;10.45;;;6.70;;
38843;SDS011;24596;48.080;8.362;2022-07-23T04:49:39;10.13;;;6.67;;
38843;SDS011;24596;48.080;8.362;2022-07-23T04:52:04;10.40;;;7.25;;
38843;SDS011;24596;48.080;8.362;2022-07-23T04:54:29;12.00;;;7.55;;
38843;SDS011;24596;48.080;8.362;2022-07-23T04:56:54;11.10;;;7.25;;
38843;SDS011;24596;48.080;8.362;2022-07-23T04:59:19;12.00;;;7.50;;
38843;SDS011;24596;48.080;8.362;2022-07-23T05:01:45;10.43;;;6.90;;
38843;SDS011;24596;48.080;8.362;2022-07-23T05:04:10;11.43;;;7.17;;
38843;SDS011;24596;48.080;8.362;2022-07-23T05:06:35;10.07;;;6.88;;
38843;SDS011;24596;48.080;8.362;2022-07-23T05:09:00;11.02;;;7.32;;
38843;SDS011;24596;48.080;8.362;2022-07-23T05:11:26;12.10;;;7.27;;
38843;SDS011;24596;48.080;8.362;2022-07-23T05:13:51;9.87;;;6.67;;
38843;SDS011;24596;48.080;8.362;2022-07-23T05:16:16;12.15;;;7.38;;
38843;SDS011;24596;48.080;8.362;2022-07-23T05:18:41;13.88;;;7.38;;
38843;SDS011;24596;48.080;8.362;2022-07-23T05:21:07;11.68;;;7.32;;
38843;SDS011;24596;48.080;8.362;2022-07-23T05:23:32;10.23;;;7.60;;
38843;SDS011;24596;48.080;8.362;2022-07-23T05:25:57;11.47;;;7.60;;
38843;SDS011;24596;48.080;8.362;2022-07-23T05:28:22;10.68;;;7.20;;
38843;SDS011;24596;48.080;8.362;2022-07-23T05:30:47;10.90;;;7.43;;
38843;SDS011;24596;48.080;8.362;2022-07-23T05:33:13;11.88;;;7.85;;
38843;SDS011;24596;48.080;8.362;2022-07-23T05:35:38;9.25;;;6.93;;
38843;SDS011;24596;48.080;8.362;2022-07-23T05:38:03;9.87;;;6.83;;
38843;SDS011;24596;48.080;8.362;2022-07-23T05:40:28;9.77;;;7.50;;
38843;SDS011;24596;48.080;8.362;2022-07-23T05:42:54;8.98;;;6.68;;
38843;SDS011;24596;48.080;8.362;2022-07-23T05:45:19;9.57;;;7.43;;
38843;SDS011;24596;48.080;8.362;2022-07-23T05:47:48;10.68;;;7.10;;
38843;SDS011;24596;48.080;8.362;2022-07-23T05:50:14;10.52;;;7.25;;
38843;SDS011;24596;48.080;8.362;2022-07-23T05:52:40;11.07;;;7.60;;
38843;SDS011;24596;48.080;8.362;2022-07-23T05:55:06;11.98;;;7.72;;
38843;SDS011;24596;48.080;8.362;2022-07-23T05:57:31;10.77;;;7.20;;
38843;SDS011;24596;48.080;8.362;2022-07-23T05:59:56;10.55;;;6.88;;
38843;SDS011;24596;48.080;8.362;2022-07-23T06:02:22;9.95;;;7.35;;
38843;SDS011;24596;48.080;8.362;2022-07-23T06:04:47;10.35;;;7.57;;
38843;SDS011;24596;48.080;8.362;2022-07-23T06:07:12;8.85;;;6.53;;
38843;SDS011;24596;48.080;8.362;2022-07-23T06:09:37;11.10;;;7.07;;
38843;SDS011;24596;48.080;8.362;2022-07-23T06:12:03;10.30;;;6.93;;
38843;SDS011;24596;48.080;8.362;2022-07-23T06:14:28;12.90;;;8.10;;
38843;SDS011;24596;48.080;8.362;2022-07-23T06:16:53;10.68;;;7.00;;
38843;SDS011;24596;48.080;8.362;2022-07-23T06:19:18;10.25;;;7.13;;
38843;SDS011;24596;48.080;8.362;2022-07-23T06:21:44;10.63;;;6.93;;
38843;SDS011;24596;48.080;8.362;2022-07-23T06:24:09;11.00;;;6.88;;
38843;SDS011;24596;48.080;8.362;2022-07-23T06:26:37;11.77;;;7.03;;
38843;SDS011;24596;48.080;8.362;2022-07-23T06:29:02;11.77;;;7.25;;
38843;SDS011;24596;48.080;8.362;2022-07-23T06:31:27;15.20;;;7.43;;
38843;SDS011;24596;48.080;8.362;2022-07-23T06:33:52;12.07;;;7.53;;
38843;SDS011;24596;48.080;8.362;2022-07-23T06:36:18;10.63;;;6.72;;
38843;SDS011;24596;48.080;8.362;2022-07-23T06:38:43;11.05;;;6.55;;
38843;SDS011;24596;48.080;8.362;2022-07-23T06:41:08;12.60;;;7.22;;
38843;SDS011;24596;48.080;8.362;2022-07-23T06:43:33;8.87;;;6.53;;
38843;SDS011;24596;48.080;8.362;2022-07-23T06:45:59;10.75;;;6.68;;
38843;SDS011;24596;48.080;8.362;2022-07-23T06:48:24;12.45;;;6.75;;
38843;SDS011;24596;48.080;8.362;2022-07-23T06:50:49;11.50;;;7.30;;
38843;SDS011;24596;48.080;8.362;2022-07-23T06:53:18;19.75;;;8.07;;
38843;SDS011;24596;48.080;8.362;2022-07-23T06:55:43;14.45;;;6.90;;
38843;SDS011;24596;48.080;8.362;2022-07-23T06:58:08;11.35;;;6.93;;
38843;SDS011;24596;48.080;8.362;2022-07-23T07:00:35;11.60;;;7.57;;
38843;SDS011;24596;48.080;8.362;2022-07-23T07:03:00;19.58;;;7.82;;
38843;SDS011;24596;48.080;8.362;2022-07-23T07:05:25;10.17;;;6.60;;
38843;SDS011;24596;48.080;8.362;2022-07-23T07:07:52;9.90;;;6.90;;
38843;SDS011;24596;48.080;8.362;2022-07-23T07:10:17;12.23;;;7.95;;
38843;SDS011;24596;48.080;8.362;2022-07-23T07:12:43;10.95;;;7.70;;
38843;SDS011;24596;48.080;8.362;2022-07-23T07:15:08;11.30;;;7.47;;
38843;SDS011;24596;48.080;8.362;2022-07-23T07:17:33;9.70;;;6.80;;
38843;SDS011;24596;48.080;8.362;2022-07-23T07:19:59;14.35;;;7.30;;
38843;SDS011;24596;48.080;8.362;2022-07-23T07:22:24;10.20;;;7.37;;
38843;SDS011;24596;48.080;8.362;2022-07-23T07:24:49;12.85;;;7.35;;
38843;SDS011;24596;48.080;8.362;2022-07-23T07:27:14;9.85;;;7.13;;
38843;SDS011;24596;48.080;8.362;2022-07-23T07:29:40;10.30;;;6.65;;
38843;SDS011;24596;48.080;8.362;2022-07-23T07:32:05;10.65;;;7.13;;
38843;SDS011;24596;48.080;8.362;2022-07-23T07:34:30;9.55;;;7.32;;
38843;SDS011;24596;48.080;8.362;2022-07-23T07:36:55;9.68;;;6.93;;
38843;SDS011;24596;48.080;8.362;2022-07-23T07:39:21;9.77;;;6.70;;
38843;SDS011;24596;48.080;8.362;2022-07-23T07:41:46;9.68;;;6.30;;
38843;SDS011;24596;48.080;8.362;2022-07-23T07:44:11;8.85;;;6.57;;
38843;SDS011;24596;48.080;8.362;2022-07-23T07:46:36;9.35;;;6.57;;
38843;SDS011;24596;48.080;8.362;2022-07-23T07:49:02;11.05;;;6.93;;
38843;SDS011;24596;48.080;8.362;2022-07-23T07:51:27;9.37;;;7.20;;
38843;SDS011;24596;48.080;8.362;2022-07-23T07:53:52;9.65;;;6.78;;
38843;SDS011;24596;48.080;8.362;2022-07-23T07:56:17;9.77;;;6.78;;
38843;SDS011;24596;48.080;8.362;2022-07-23T07:58:43;9.05;;;6.57;;
38843;SDS011;24596;48.080;8.362;2022-07-23T08:01:08;10.35;;;7.10;;
38843;SDS011;24596;48.080;8.362;2022-07-23T08:03:33;10.55;;;7.18;;
38843;SDS011;24596;48.080;8.362;2022-07-23T08:05:58;10.80;;;6.95;;
38843;SDS011;24596;48.080;8.362;2022-07-23T08:08:24;10.63;;;7.05;;
38843;SDS011;24596;48.080;8.362;2022-07-23T08:10:49;12.18;;;7.30;;
38843;SDS011;24596;48.080;8.362;2022-07-23T08:13:15;11.02;;;7.18;;
38843;SDS011;24596;48.080;8.362;2022-07-23T08:15:41;11.10;;;6.95;;
38843;SDS011;24596;48.080;8.362;2022-07-23T08:18:06;10.43;;;7.20;;
38843;SDS011;24596;48.080;8.362;2022-07-23T08:20:31;11.20;;;6.90;;
38843;SDS011;24596;48.080;8.362;2022-07-23T08:23:04;9.70;;;6.90;;
38843;SDS011;24596;48.080;8.362;2022-07-23T08:25:39;10.05;;;6.85;;
38843;SDS011;24596;48.080;8.362;2022-07-23T08:28:06;11.65;;;6.97;;
38843;SDS011;24596;48.080;8.362;2022-07-23T08:30:32;11.40;;;6.78;;
38843;SDS011;24596;48.080;8.362;2022-07-23T08:32:58;9.82;;;6.80;;
38843;SDS011;24596;48.080;8.362;2022-07-23T08:35:34;9.32;;;6.85;;
38843;SDS011;24596;48.080;8.362;2022-07-23T08:38:00;10.73;;;7.13;;
38843;SDS011;24596;48.080;8.362;2022-07-23T08:40:26;10.35;;;6.97;;
38843;SDS011;24596;48.080;8.362;2022-07-23T08:42:52;11.07;;;6.63;;
38843;SDS011;24596;48.080;8.362;2022-07-23T08:45:18;11.00;;;6.60;;
38843;SDS011;24596;48.080;8.362;2022-07-23T08:47:44;11.27;;;7.22;;
38843;SDS011;24596;48.080;8.362;2022-07-23T08:50:09;11.93;;;7.15;;
38843;SDS011;24596;48.080;8.362;2022-07-23T08:52:35;10.07;;;6.93;;
38843;SDS011;24596;48.080;8.362;2022-07-23T08:55:01;9.80;;;6.22;;
38843;SDS011;24596;48.080;8.362;2022-07-23T08:57:26;10.90;;;7.05;;
38843;SDS011;24596;48.080;8.362;2022-07-23T08:59:51;10.93;;;7.30;;
38843;SDS011;24596;48.080;8.362;2022-07-23T09:02:16;8.60;;;6.18;;
38843;SDS011;24596;48.080;8.362;2022-07-23T09:04:42;11.15;;;7.15;;
38843;SDS011;24596;48.080;8.362;2022-07-23T09:07:07;10.40;;;6.77;;
38843;SDS011;24596;48.080;8.362;2022-07-23T09:09:33;10.68;;;7.28;;
38843;SDS011;24596;48.080;8.362;2022-07-23T09:12:07;9.13;;;6.72;;
38843;SDS011;24596;48.080;8.362;2022-07-23T09:14:38;10.20;;;7.10;;
38843;SDS011;24596;48.080;8.362;2022-07-23T09:17:13;11.05;;;7.03;;
38843;SDS011;24596;48.080;8.362;2022-07-23T09:19:39;8.45;;;6.50;;
38843;SDS011;24596;48.080;8.362;2022-07-23T09:27:26;10.13;;;7.13;;
38843;SDS011;24596;48.080;8.362;2022-07-23T09:30:09;10.30;;;6.93;;
38843;SDS011;24596;48.080;8.362;2022-07-23T09:32:35;11.13;;;7.53;;
38843;SDS011;24596;48.080;8.362;2022-07-23T09:35:00;12.50;;;6.87;;
38843;SDS011;24596;48.080;8.362;2022-07-23T09:37:25;9.90;;;6.93;;
38843;SDS011;24596;48.080;8.362;2022-07-23T09:39:50;9.97;;;7.23;;
38843;SDS011;24596;48.080;8.362;2022-07-23T09:42:17;10.02;;;7.40;;
38843;SDS011;24596;48.080;8.362;2022-07-23T09:44:43;10.68;;;7.32;;
38843;SDS011;24596;48.080;8.362;2022-07-23T09:47:09;10.70;;;7.10;;
38843;SDS011;24596;48.080;8.362;2022-07-23T09:49:34;11.07;;;7.10;;
38843;SDS011;24596;48.080;8.362;2022-07-23T09:52:02;10.30;;;7.35;;
38843;SDS011;24596;48.080;8.362;2022-07-23T09:54:35;10.68;;;6.72;;
38843;SDS011;24596;48.080;8.362;2022-07-23T09:57:02;12.02;;;6.57;;
38843;SDS011;24596;48.080;8.362;2022-07-23T09:59:30;10.20;;;7.18;;
38843;SDS011;24596;48.080;8.362;2022-07-23T10:01:58;11.30;;;6.65;;
38843;SDS011;24596;48.080;8.362;2022-07-23T10:04:25;9.10;;;7.03;;
38843;SDS011;24596;48.080;8.362;2022-07-23T10:06:54;9.65;;;6.95;;
38843;SDS011;24596;48.080;8.362;2022-07-23T10:09:24;8.75;;;6.43;;
38843;SDS011;24596;48.080;8.362;2022-07-23T10:11:50;9.40;;;6.85;;
38843;SDS011;24596;48.080;8.362;2022-07-23T10:14:15;12.25;;;7.32;;
38843;SDS011;24596;48.080;8.362;2022-07-23T10:16:41;10.35;;;6.57;;
38843;SDS011;24596;48.080;8.362;2022-07-23T10:19:06;10.18;;;7.30;;
38843;SDS011;24596;48.080;8.362;2022-07-23T10:31:59;10.40;;;6.78;;
38843;SDS011;24596;48.080;8.362;2022-07-23T10:34:34;10.52;;;7.25;;
38843;SDS011;24596;48.080;8.362;2022-07-23T10:37:12;9.85;;;6.95;;
38843;SDS011;24596;48.080;8.362;2022-07-23T10:39:42;10.65;;;7.05;;
38843;SDS011;24596;48.080;8.362;2022-07-23T10:42:11;11.13;;;6.53;;
38843;SDS011;24596;48.080;8.362;2022-07-23T10:44:40;11.02;;;7.65;;
38843;SDS011;24596;48.080;8.362;2022-07-23T10:47:05;9.18;;;7.13;;
38843;SDS011;24596;48.080;8.362;2022-07-23T10:49:43;10.35;;;7.18;;
38843;SDS011;24596;48.080;8.362;2022-07-23T10:52:19;11.23;;;7.10;;
38843;SDS011;24596;48.080;8.362;2022-07-23T10:57:17;9.82;;;6.53;;
38843;SDS011;24596;48.080;8.362;2022-07-23T11:02:37;11.48;;;7.43;;
38843;SDS011;24596;48.080;8.362;2022-07-23T11:05:07;12.27;;;7.28;;
38843;SDS011;24596;48.080;8.362;2022-07-23T11:07:33;9.02;;;6.82;;
38843;SDS011;24596;48.080;8.362;2022-07-23T11:09:58;9.70;;;7.07;;
38843;SDS011;24596;48.080;8.362;2022-07-23T11:17:26;9.65;;;7.20;;
38843;SDS011;24596;48.080;8.362;2022-07-23T11:22:36;10.60;;;6.80;;
38843;SDS011;24596;48.080;8.362;2022-07-23T11:25:02;9.45;;;7.28;;
38843;SDS011;24596;48.080;8.362;2022-07-23T11:27:40;13.88;;;7.82;;
38843;SDS011;24596;48.080;8.362;2022-07-23T11:30:09;10.15;;;6.80;;
38843;SDS011;24596;48.080;8.362;2022-07-23T11:32:36;9.65;;;7.22;;
38843;SDS011;24596;48.080;8.362;2022-07-23T11:35:03;10.57;;;6.63;;
38843;SDS011;24596;48.080;8.362;2022-07-23T11:37:42;9.48;;;7.07;;
38843;SDS011;24596;48.080;8.362;2022-07-23T11:40:10;11.68;;;6.93;;
38843;SDS011;24596;48.080;8.362;2022-07-23T11:42:36;10.88;;;7.53;;
38843;SDS011;24596;48.080;8.362;2022-07-23T11:45:02;10.98;;;7.07;;
38843;SDS011;24596;48.080;8.362;2022-07-23T11:47:27;11.85;;;7.75;;
38843;SDS011;24596;48.080;8.362;2022-07-23T11:52:18;12.43;;;7.10;;
38843;SDS011;24596;48.080;8.362;2022-07-23T11:54:51;10.52;;;6.85;;
38843;SDS011;24596;48.080;8.362;2022-07-23T11:57:16;10.55;;;7.05;;
38843;SDS011;24596;48.080;8.362;2022-07-23T11:59:42;12.15;;;7.07;;
38843;SDS011;24596;48.080;8.362;2022-07-23T12:02:08;13.85;;;7.53;;
38843;SDS011;24596;48.080;8.362;2022-07-23T12:04:52;10.20;;;6.85;;
38843;SDS011;24596;48.080;8.362;2022-07-23T12:09:49;10.75;;;6.93;;
38843;SDS011;24596;48.080;8.362;2022-07-23T12:12:15;8.23;;;6.45;;
38843;SDS011;24596;48.080;8.362;2022-07-23T12:14:53;10.90;;;7.20;;
38843;SDS011;24596;48.080;8.362;2022-07-23T12:17:19;12.07;;;6.90;;
38843;SDS011;24596;48.080;8.362;2022-07-23T12:19:45;10.60;;;7.25;;
38843;SDS011;24596;48.080;8.362;2022-07-23T12:22:10;8.60;;;6.45;;
38843;SDS011;24596;48.080;8.362;2022-07-23T12:27:20;13.20;;;7.13;;
38843;SDS011;24596;48.080;8.362;2022-07-23T12:29:49;10.95;;;6.60;;
38843;SDS011;24596;48.080;8.362;2022-07-23T12:32:18;10.60;;;6.82;;
38843;SDS011;24596;48.080;8.362;2022-07-23T12:34:44;11.40;;;7.68;;
38843;SDS011;24596;48.080;8.362;2022-07-23T12:37:58;10.10;;;6.85;;
38843;SDS011;24596;48.080;8.362;2022-07-23T12:39:55;11.68;;;6.88;;
38843;SDS011;24596;48.080;8.362;2022-07-23T12:42:20;10.30;;;6.80;;
38843;SDS011;24596;48.080;8.362;2022-07-23T12:45:05;11.23;;;7.22;;
38843;SDS011;24596;48.080;8.362;2022-07-23T12:47:30;10.02;;;7.13;;
38843;SDS011;24596;48.080;8.362;2022-07-23T12:50:34;9.02;;;6.40;;
38843;SDS011;24596;48.080;8.362;2022-07-23T12:53:11;8.70;;;6.35;;
38843;SDS011;24596;48.080;8.362;2022-07-23T12:55:37;10.05;;;6.70;;
38843;SDS011;24596;48.080;8.362;2022-07-23T12:58:12;9.20;;;7.40;;
38843;SDS011;24596;48.080;8.362;2022-07-23T13:03:35;9.98;;;6.68;;
38843;SDS011;24596;48.080;8.362;2022-07-23T13:06:02;9.38;;;6.82;;
38843;SDS011;24596;48.080;8.362;2022-07-23T13:08:28;11.95;;;7.07;;
38843;SDS011;24596;48.080;8.362;2022-07-23T13:10:54;10.18;;;6.78;;
38843;SDS011;24596;48.080;8.362;2022-07-23T13:13:20;10.75;;;6.72;;
38843;SDS011;24596;48.080;8.362;2022-07-23T13:15:46;10.27;;;6.63;;
38843;SDS011;24596;48.080;8.362;2022-07-23T13:18:11;9.40;;;6.53;;
38843;SDS011;24596;48.080;8.362;2022-07-23T13:20:37;11.73;;;6.57;;
38843;SDS011;24596;48.080;8.362;2022-07-23T13:23:03;10.57;;;6.20;;
38843;SDS011;24596;48.080;8.362;2022-07-23T13:25:29;10.85;;;6.72;;
38843;SDS011;24596;48.080;8.362;2022-07-23T13:27:54;12.57;;;7.27;;
38843;SDS011;24596;48.080;8.362;2022-07-23T13:30:19;9.93;;;7.00;;
38843;SDS011;24596;48.080;8.362;2022-07-23T13:32:44;9.83;;;6.73;;
38843;SDS011;24596;48.080;8.362;2022-07-23T13:35:10;8.65;;;6.72;;
38843;SDS011;24596;48.080;8.362;2022-07-23T13:37:38;11.30;;;6.57;;
38843;SDS011;24596;48.080;8.362;2022-07-23T13:40:03;10.18;;;7.05;;
38843;SDS011;24596;48.080;8.362;2022-07-23T13:42:29;10.70;;;6.82;;
38843;SDS011;24596;48.080;8.362;2022-07-23T13:44:54;9.35;;;7.13;;
38843;SDS011;24596;48.080;8.362;2022-07-23T13:47:19;12.57;;;7.20;;
38843;SDS011;24596;48.080;8.362;2022-07-23T13:49:45;10.27;;;6.70;;
38843;SDS011;24596;48.080;8.362;2022-07-23T13:52:10;11.47;;;6.97;;
38843;SDS011;24596;48.080;8.362;2022-07-23T13:54:35;8.73;;;6.87;;
38843;SDS011;24596;48.080;8.362;2022-07-23T13:57:01;13.30;;;6.57;;
38843;SDS011;24596;48.080;8.362;2022-07-23T13:59:26;12.98;;;7.43;;
38843;SDS011;24596;48.080;8.362;2022-07-23T14:01:51;10.90;;;6.90;;
38843;SDS011;24596;48.080;8.362;2022-07-23T14:04:17;10.53;;;6.50;;
38843;SDS011;24596;48.080;8.362;2022-07-23T14:06:42;10.07;;;6.90;;
38843;SDS011;24596;48.080;8.362;2022-07-23T14:09:07;10.63;;;7.90;;
38843;SDS011;24596;48.080;8.362;2022-07-23T14:11:32;10.27;;;7.33;;
38843;SDS011;24596;48.080;8.362;2022-07-23T14:13:58;11.95;;;7.22;;
38843;SDS011;24596;48.080;8.362;2022-07-23T14:16:25;11.90;;;7.13;;
38843;SDS011;24596;48.080;8.362;2022-07-23T14:18:51;11.00;;;7.57;;
38843;SDS011;24596;48.080;8.362;2022-07-23T14:21:16;10.38;;;6.65;;
38843;SDS011;24596;48.080;8.362;2022-07-23T14:23:41;10.63;;;6.95;;
38843;SDS011;24596;48.080;8.362;2022-07-23T14:26:06;14.27;;;6.57;;
38843;SDS011;24596;48.080;8.362;2022-07-23T14:28:33;12.32;;;8.57;;
38843;SDS011;24596;48.080;8.362;2022-07-23T14:30:58;8.40;;;6.65;;
38843;SDS011;24596;48.080;8.362;2022-07-23T14:33:23;10.60;;;6.93;;
38843;SDS011;24596;48.080;8.362;2022-07-23T14:35:49;10.48;;;7.72;;
38843;SDS011;24596;48.080;8.362;2022-07-23T14:38:14;13.77;;;7.07;;
38843;SDS011;24596;48.080;8.362;2022-07-23T14:40:39;9.60;;;6.63;;
38843;SDS011;24596;48.080;8.362;2022-07-23T14:43:05;11.90;;;6.32;;
38843;SDS011;24596;48.080;8.362;2022-07-23T14:45:30;9.87;;;6.50;;
38843;SDS011;24596;48.080;8.362;2022-07-23T14:47:56;10.10;;;7.00;;
38843;SDS011;24596;48.080;8.362;2022-07-23T14:50:21;8.80;;;6.50;;
38843;SDS011;24596;48.080;8.362;2022-07-23T14:52:46;11.90;;;6.90;;
38843;SDS011;24596;48.080;8.362;2022-07-23T14:55:11;9.47;;;6.70;;
38843;SDS011;24596;48.080;8.362;2022-07-23T14:57:37;9.75;;;7.25;;
38843;SDS011;24596;48.080;8.362;2022-07-23T15:00:03;8.63;;;6.70;;
38843;SDS011;24596;48.080;8.362;2022-07-23T15:02:29;9.43;;;7.40;;
38843;SDS011;24596;48.080;8.362;2022-07-23T15:04:54;10.10;;;7.00;;
38843;SDS011;24596;48.080;8.362;2022-07-23T15:07:20;9.65;;;6.70;;
38843;SDS011;24596;48.080;8.362;2022-07-23T15:09:45;9.97;;;7.20;;
38843;SDS011;24596;48.080;8.362;2022-07-23T15:12:13;11.30;;;7.47;;